Hanover, IN

11:57 PM EDT on August 29, 2016 (GMT -0400)
4-H Fairground area | | Change Station

Elev 791 ft 38.74 °N, 85.46 °W | Updated 14 seconds ago

Clear
Clear
73.6 °F
Feels Like 73.6 °F
N
0.0
Wind Variable Wind from East

Today
High -- | Low -- °F
--% Chance of Precip.
Yesterday
High -- | Low -- °F
Precip. -- in
Pressure 30.13 in
Visibility 10.0 miles
Clouds Clear
Dew Point 73 °F
Humidity 99%
Rainfall 0.06 in
Snow Depth Not available.
7:08 AM 8:15 PM
Waning Crescent, 5% visible
METAR KLOU 300353Z 01003KT 10SM CLR 27/21 A3015 RMK AO2 SLP203 T02670206
Pressure 30.13 in
Visibility 10.0 miles
Clouds Clear
Dew Point 73 °F
Humidity 99%
Rainfall 0.06 in
Snow Depth Not available.
7:08 AM 8:15 PM
Waning Crescent, 5% visible
METAR KLOU 300353Z 01003KT 10SM CLR 27/21 A3015 RMK AO2 SLP203 T02670206

10-Day Weather Forecast

Almanac

Astronomy

Aug. 29, 2016 Rise Set
Actual Time
Civil Twilight
Nautical Twilight
Astronomical Twilight
Moon
Length of Visible Light
Length of Day
Tomorrow will be .
, % of the Moon is Illuminated

Today's Extremes

State Highs State Lows

Community

WunderPhotos

Upload Photos

1,935,783 photos uploaded!

WunderBlog® & News

Nearby

Air Quality

  Air Quality AQ Index Pollutant
Not available.

Snow Depth

Station Depth Elevation

Earthquake Activity

City Distance Mag. Time & Date
Minimum magnitude displayed is 2.5.

Coastal Water Temperatures

Place Temperature

Stations

Nearby Weather Stations

Station Location Temp. Windchill Dew Point Humidity Wind Precip. Elev Updated Type
                   

Watches & Warnings

There are currently no watches in effect.